F E Warren AFB, Wyoming
Current Conditions -  °F | °C
As of 9:53 PM on Saturday 20 Dec 2014 (Local Time) from KCYS Reporting Station
Broken Clouds Broken Clouds  
Wind Chill: 26°   Ceiling: 10000
Heat Index: 33°   Visibility: 10mi
Dew Point: 16°   Wind: 8mph
Humidity: 50%   Direction: 260°W
Pressure: 29.91"   Gusts: NA
Location:  41.13°N, 104.82°W
Report Text: KCYS 210453Z 26007KT 10SM BKN100 01/M09 A2991 RMK AO2 SLP134 T00061089
Loading
Personal Weather Stations






























Interactive Weather Map New forecast layout! Learn more

10-Day Weather Forecast

Advertisements
Track Severe Weather on mobile